• Join FlightAware (Why Join?)
  • Login
  • US Flag 
02:30AM EDT


 

Airport Tracker/Info


-or-


 

Live Flight TrackerFlight Track Log ✈ N749SS ✈ 10-Mar-2014 ✈ CYYZ - KAPF

Flight Track Log - Related Links

Times and Time Zones

All times are in EDT time to prevent confusion due to time zone crossing. See the N749SS flight status page for this flight to view local times or setup timezone preferences in your user account.

Time Position Orientation Groundspeed Altitude Reporting Facility
EDT Latitude Longitude Course Direction KTS MPH feet Rate Location/Type
04:13PM 43.6833 -79.6333 90° East 10 12 600  Level Toronto Center
04:14PM 43.6833 -79.6167 90° East 10 12 600 360 Level Toronto Center
04:15PM 43.6667 -79.6333 216° Southwest 100 115 1,400 1,200 Climbing Toronto Center
04:16PM 43.6333 -79.7000 229° Southwest 210 242 3,000 2,760 Climbing Toronto Center
04:17PM 43.6000 -79.7667 235° Southwest 230 265 7,000 4,260 Climbing Toronto Center
04:18PM 43.5333 -79.8167 209° Southwest 230 265 11,600 3,900 Climbing Toronto Center
04:19PM 43.4667 -79.8167 180° South 270 311 14,900 2,700 Climbing Toronto Center
04:20PM 43.3833 -79.8333 188° South 320 368 17,000 2,280 Climbing Toronto Center
04:21PM 43.2667 -79.8333 180° South 380 437 19,500 2,220 Climbing Toronto Center
04:22PM 43.1500 -79.8667 192° South 430 495 21,500 1,980 Climbing Toronto Center
04:23PM 43.0167 -79.8833 185° South 460 529 23,500 1,980 Climbing Toronto Center
04:24PM 42.8833 -79.9000 185° South 480 552 25,500 1,800 Climbing Toronto Center
04:24PM 42.8306 -79.9322 204° Southwest 494 568 26,400 1,740 Climbing Cleveland Center
04:25PM 42.6911 -79.9522 186° South 504 580 28,400 2,160 Climbing Cleveland Center
04:26PM 42.5219 -79.9758 186° South 511 588 30,900 1,200 Climbing Cleveland Center
04:27PM 42.4028 -79.9942 186° South 481 554 31,000  Climbing Cleveland Center
04:29PM 42.2675 -80.0133 186° South 482 555 31,000 1,080 Level Cleveland Center
04:30PM 42.1114 -80.0344 186° South 479 551 33,300 2,100 Climbing Cleveland Center
04:31PM 41.9786 -80.0531 186° South 477 549 35,400 1,920 Climbing Cleveland Center
04:32PM 41.8450 -80.0728 186° South 476 548 37,300 1,200 Climbing Cleveland Center
04:33PM 41.7142 -80.0900 186° South 470 541 38,000 300 Climbing Cleveland Center
04:34PM 41.5694 -80.1108 186° South 472 543 38,000  Level Cleveland Center
04:35PM 41.4353 -80.1278 185° South 482 555 38,000  Level Cleveland Center
04:36PM 41.3014 -80.1461 186° South 483 556 38,000  Level Cleveland Center
04:37PM 41.1678 -80.1647 186° South 483 556 38,000  Level Cleveland Center
04:38PM 41.0342 -80.1822 186° South 483 556 38,000  Level Cleveland Center
04:39PM 40.9008 -80.1997 186° South 483 556 38,000  Level Cleveland Center
04:40PM 40.7564 -80.2308 189° South 478 550 38,000  Level Cleveland Center
04:41PM 40.6342 -80.2747 195° South 465 535 38,000  Level Cleveland Center
04:42PM 40.4875 -80.3247 195° South 460 529 38,000  Level Cleveland Center
04:43PM 40.3822 -80.3589 194° South 460 529 38,000  Level Cleveland Center
04:44PM 40.2372 -80.4069 194° South 458 527 38,000  Level Cleveland Center
04:45PM 40.1136 -80.4381 191° South 457 526 38,000  Level Cleveland Center
04:46PM 39.9906 -80.4731 192° South 456 525 38,000  Level Cleveland Center
04:47PM 39.8692 -80.5050 191° South 448 516 38,000  Level Cleveland Center
04:48PM 39.7467 -80.5367 191° South 449 517 38,000  Level Cleveland Center
04:49PM 39.5989 -80.5750 191° South 450 518 38,000  Level Cleveland Center
04:50PM 39.4742 -80.6097 192° South 455 524 38,000  Level Cleveland Center
04:51PM 39.3481 -80.6450 192° South 460 529 38,000  Level Cleveland Center
04:52PM 39.2219 -80.6767 191° South 462 532 38,000  Level Cleveland Center
04:53PM 39.0947 -80.7100 191° South 463 533 38,000  Level Cleveland Center
04:54PM 38.9669 -80.7444 192° South 465 535 38,000  Level Cleveland Center
04:55PM 38.8144 -80.7822 191° South 465 535 38,000  Level Cleveland Center
04:56PM 38.6883 -80.8158 192° South 465 535 38,000  Level Cleveland Center
04:57PM 38.5611 -80.8478 191° South 465 535 38,000  Level Cleveland Center
04:58PM 38.4336 -80.8814 192° South 466 536 38,000  Level Cleveland Center
05:00PM 38.3067 -80.9131 191° South 466 536 38,000  Level Cleveland Center
05:01PM 38.1697 -80.9478 191° South 464 534 38,000  Level Cleveland Center
05:02PM 38.0214 -80.9881 192° South 464 534 38,000  Level Indianapolis Center
05:03PM 37.9003 -81.0189 191° South 450 518 38,000  Level Indianapolis Center
05:04PM 37.7642 -81.0525 191° South 446 513 38,000  Level Indianapolis Center
05:05PM 37.6453 -81.0819 191° South 445 512 38,000  Level Indianapolis Center
05:06PM 37.5031 -81.1175 191° South 447 514 38,000  Level Indianapolis Center
05:07PM 37.3847 -81.1483 192° South 447 514 38,000  Level Indianapolis Center
05:08PM 37.2506 -81.1817 191° South 447 514 38,000  Level Indianapolis Center
05:09PM 37.1261 -81.2131 191° South 448 516 38,000  Level Indianapolis Center
05:10PM 37.0169 -81.2417 192° South 459 528 38,000  Level Atlanta Center
05:11PM 36.8906 -81.2722 191° South 469 540 38,000  Level Atlanta Center
05:12PM 36.7700 -81.2997 190° South 456 525 38,000  Level Atlanta Center
05:13PM 36.6478 -81.3322 192° South 451 519 38,000  Level Atlanta Center
05:14PM 36.5233 -81.3597 190° South 451 519 38,000  Level Atlanta Center
05:15PM 36.4011 -81.3922 192° South 451 519 38,000  Level Atlanta Center
05:16PM 36.2767 -81.4247 192° South 451 519 38,000  Level Atlanta Center
05:17PM 36.1542 -81.4544 191° South 451 519 38,000  Level Atlanta Center
05:18PM 36.0275 -81.4814 190° South 451 519 38,000  Level Atlanta Center
05:19PM 35.9031 -81.5161 193° South 456 525 38,000  Level Atlanta Center
05:20PM 35.7783 -81.5456 191° South 456 525 38,000  Level Atlanta Center
05:21PM 35.6561 -81.5775 192° South 456 525 38,000  Level Atlanta Center
05:22PM 35.5314 -81.6067 191° South 461 531 38,000  Level Atlanta Center
05:23PM 35.4067 -81.6333 190° South 461 531 38,000  Level Atlanta Center
05:24PM 35.2800 -81.6650 192° South 466 536 38,000  Level Atlanta Center
05:25PM 35.1575 -81.6914 190° South 466 536 38,000  Level Atlanta Center
05:26PM 35.0331 -81.7253 193° South 466 536 38,000  Level Atlanta Center
05:27PM 34.9103 -81.7517 190° South 466 536 38,000  Level Atlanta Center
05:28PM 34.7836 -81.7803 191° South 466 536 38,000  Level Atlanta Center
05:29PM 34.6611 -81.8114 192° South 466 536 38,000  Level Atlanta Center
05:30PM 34.5508 -81.8319 189° South 461 531 38,000  Level Atlanta Center
05:31PM 34.4281 -81.8606 191° South 461 531 38,000  Level Atlanta Center
05:32PM 34.3033 -81.8889 191° South 461 531 38,000  Level Atlanta Center
05:33PM 34.1828 -81.9144 190° South 451 519 38,000  Level Atlanta Center
05:34PM 34.0622 -81.9425 191° South 446 513 38,000  Level Atlanta Center
05:35PM 33.9417 -81.9706 191° South 446 513 38,000  Level Atlanta Center
05:36PM 33.8192 -81.9986 191° South 446 513 38,000  Level Atlanta Center
05:37PM 33.6983 -82.0239 190° South 446 513 38,000  Level Atlanta Center
05:38PM 33.5736 -82.0542 191° South 451 519 38,000  Level Atlanta Center
05:39PM 33.4508 -82.0819 191° South 451 519 38,000  Level Atlanta Center
05:40PM 33.3303 -82.1119 192° South 451 519 38,000 -120 Level Atlanta Center
05:41PM 33.2097 -82.1369 190° South 451 519 37,800 -600 Descending Atlanta Center
05:42PM 33.0933 -82.1644 191° South 441 507 36,900 -900 Descending Atlanta Center
05:43PM 32.9767 -82.1892 190° South 436 502 36,000 -480 Descending Atlanta Center
05:44PM 32.8539 -82.2189 191° South 436 502 36,000 -60 Level Atlanta Center
05:46PM 32.6264 -82.2686 190° South 470 541 35,900 -300 Descending Jacksonville Center
05:47PM 32.5011 -82.2939 190° South 465 535 35,300 -780 Descending Jacksonville Center
05:48PM 32.3950 -82.3217 192° South 459 528 34,400 -660 Descending Jacksonville Center
05:49PM 32.2614 -82.3275 182° South 454 522 34,000 -240 Descending Jacksonville Center
05:50PM 32.1172 -82.3136 175° South 475 547 34,000  Level Jacksonville Center
05:51PM 31.9836 -82.3022 176° South 481 554 34,000  Level Jacksonville Center
05:52PM 31.8667 -82.2883 174° South 481 554 34,000 -180 Level Jacksonville Center
05:53PM 31.7225 -82.2769 176° South 481 554 33,700 -600 Descending Jacksonville Center
05:54PM 31.6117 -82.2681 176° South 465 535 32,800 -960 Descending Jacksonville Center
05:55PM 31.4842 -82.2567 176° South 460 529 31,800 -960 Descending Jacksonville Center
05:56PM 31.3486 -82.2456 176° South 467 537 30,900 -960 Descending Jacksonville Center
05:57PM 31.2128 -82.2294 174° South 490 564 29,900 -1,020 Descending Jacksonville Center
05:58PM 31.0706 -82.2183 176° South 503 579 28,900 -960 Descending Jacksonville Center
05:59PM 30.9286 -82.2025 175° South 508 585 28,000 -480 Descending Jacksonville Center
06:00PM 30.7844 -82.1889 175° South 514 592 28,000  Level Jacksonville Center
06:01PM 30.6425 -82.1756 175° South 520 598 28,000  Level Jacksonville Center
06:02PM 30.5025 -82.1597 174° South 520 598 28,000 -60 Level Jacksonville Center
06:03PM 30.3583 -82.1464 175° South 515 593 27,900  Descending Jacksonville Center
06:04PM 30.2161 -82.1331 175° South 520 598 28,000  Climbing Jacksonville Center
06:05PM 30.0761 -82.1078 171° South 515 593 28,000  Level Jacksonville Center
06:06PM 29.9194 -82.0803 171° South 515 593 28,000 -360 Level Jacksonville Center
06:07PM 29.7794 -82.0528 170° South 520 598 27,300 -540 Descending Jacksonville Center
06:08PM 29.6394 -82.0275 171° South 520 598 27,000 -180 Descending Jacksonville Center
06:09PM 29.4972 -82.0003 171° South 520 598 27,000  Level Jacksonville Center
06:10PM 29.3592 -81.9706 169° South 520 598 27,000  Level Jacksonville Center
06:11PM 29.2169 -81.9408 170° South 520 598 27,000  Level Jacksonville Center
06:13PM 28.8639 -81.8733 170° South 503 579 27,000  Level Miami Center
06:14PM 28.7231 -81.8456 170° South 515 593 27,000  Level Miami Center
06:15PM 28.5842 -81.8158 169° South 520 598 27,000  Level Miami Center
06:16PM 28.4478 -81.7789 167° South 513 590 27,000 -420 Level Miami Center
06:17PM 28.3053 -81.7397 166° South 508 585 26,200 -1,200 Descending Miami Center
06:18PM 28.1731 -81.7011 166° South 509 586 24,700 -1,800 Descending Miami Center
06:19PM 28.0406 -81.6694 168° South 503 579 22,600 -2,100 Descending Miami Center
06:20PM 27.9100 -81.6453 171° South 490 564 20,600 -2,100 Descending Miami Center
06:21PM 27.7856 -81.6211 170° South 471 542 18,500 -2,040 Descending Miami Center
06:22PM 27.6653 -81.5997 171° South 457 526 16,600 -2,040 Descending Miami Center
06:23PM 27.5492 -81.5786 171° South 439 505 14,500 -1,800 Descending Miami Center
06:24PM 27.4369 -81.5622 173° South 424 488 13,000 -1,200 Descending Miami Center
06:25PM 27.3394 -81.5419 170° South 418 481 12,200 -900 Descending Miami Center
06:26PM 27.2275 -81.5211 171° South 408 470 11,200 -1,140 Descending Miami Center
06:27PM 27.1175 -81.5025 171° South 408 470 10,000 -600 Descending Miami Center
06:28PM 27.0014 -81.4769 169° South 403 464 10,000  Level Miami Center
06:29PM 26.9006 -81.4289 157° South 397 457 10,000  Level Miami Center
06:30PM 26.8039 -81.3831 157° South 390 449 10,000 -660 Level Miami Center
06:31PM 26.7200 -81.3939 187° South 311 358 8,700 -1,080 Descending Miami Center
06:32PM 26.6425 -81.4003 184° South 290 334 7,900 -1,320 Descending Miami Center
06:33PM 26.5764 -81.4486 213° Southwest 280 322 6,100 -1,920 Descending Miami Center
06:34PM 26.5142 -81.4972 215° Southwest 280 322 4,100 -1,560 Descending Miami Center
06:35PM 26.4542 -81.5436 215° Southwest 275 316 3,000 -1,140 Descending Miami Center
06:37PM 26.3212 -81.6460 233° Southwest  Level Estimated
06:44PM 26.1500 -81.7667 246° West  Level FlightAware Approximate
06:45PM 26.1524 -81.7756 246° West  Level Estimated
06:46PM 26.1524 -81.7756 246° West  Level Estimated
06:47PM 26.1524 -81.7756 246° West  Level Estimated
06:48PM 26.1524 -81.7756 246° West  Level Estimated
06:49PM 26.1524 -81.7756 246° West  Level Estimated
06:50PM 26.1524 -81.7756 246° West  Level Estimated
06:51PM 26.1524 -81.7756 246° West  Level Estimated